sensor_id;sensor_type;location;lat;lon;timestamp;P1;durP1;ratioP1;P2;durP2;ratioP2
18822;SDS011;9540;51.550;7.980;2022-07-01T00:01:43;7.75;;;6.97;;
18822;SDS011;9540;51.550;7.980;2022-07-01T00:04:12;10.38;;;8.32;;
18822;SDS011;9540;51.550;7.980;2022-07-01T00:06:39;8.30;;;7.10;;
18822;SDS011;9540;51.550;7.980;2022-07-01T00:09:06;12.88;;;9.52;;
18822;SDS011;9540;51.550;7.980;2022-07-01T00:11:35;14.05;;;10.63;;
18822;SDS011;9540;51.550;7.980;2022-07-01T00:14:02;13.38;;;10.98;;
18822;SDS011;9540;51.550;7.980;2022-07-01T00:16:29;14.48;;;10.35;;
18822;SDS011;9540;51.550;7.980;2022-07-01T00:18:56;14.60;;;11.77;;
18822;SDS011;9540;51.550;7.980;2022-07-01T00:21:23;16.40;;;12.43;;
18822;SDS011;9540;51.550;7.980;2022-07-01T00:23:50;21.23;;;13.73;;
18822;SDS011;9540;51.550;7.980;2022-07-01T00:26:17;16.85;;;13.35;;
18822;SDS011;9540;51.550;7.980;2022-07-01T00:28:46;17.83;;;12.80;;
18822;SDS011;9540;51.550;7.980;2022-07-01T00:31:13;18.02;;;13.80;;
18822;SDS011;9540;51.550;7.980;2022-07-01T00:33:40;20.48;;;14.68;;
18822;SDS011;9540;51.550;7.980;2022-07-01T00:36:06;22.10;;;16.35;;
18822;SDS011;9540;51.550;7.980;2022-07-01T00:38:33;22.88;;;15.82;;
18822;SDS011;9540;51.550;7.980;2022-07-01T00:41:01;23.17;;;15.70;;
18822;SDS011;9540;51.550;7.980;2022-07-01T00:43:33;20.95;;;14.85;;
18822;SDS011;9540;51.550;7.980;2022-07-01T00:46:03;21.85;;;14.65;;
18822;SDS011;9540;51.550;7.980;2022-07-01T00:48:30;22.13;;;14.18;;
18822;SDS011;9540;51.550;7.980;2022-07-01T00:50:58;18.83;;;13.45;;
18822;SDS011;9540;51.550;7.980;2022-07-01T00:53:25;16.98;;;11.48;;
18822;SDS011;9540;51.550;7.980;2022-07-01T00:55:54;15.20;;;10.82;;
18822;SDS011;9540;51.550;7.980;2022-07-01T00:58:21;13.65;;;9.77;;
18822;SDS011;9540;51.550;7.980;2022-07-01T01:00:51;12.25;;;9.13;;
18822;SDS011;9540;51.550;7.980;2022-07-01T01:03:20;12.27;;;8.77;;
18822;SDS011;9540;51.550;7.980;2022-07-01T01:05:47;14.85;;;10.85;;
18822;SDS011;9540;51.550;7.980;2022-07-01T01:08:15;13.20;;;9.82;;
18822;SDS011;9540;51.550;7.980;2022-07-01T01:10:43;17.60;;;11.25;;
18822;SDS011;9540;51.550;7.980;2022-07-01T01:13:10;14.30;;;9.82;;
18822;SDS011;9540;51.550;7.980;2022-07-01T01:15:37;15.00;;;9.05;;
18822;SDS011;9540;51.550;7.980;2022-07-01T01:18:05;11.40;;;8.95;;
18822;SDS011;9540;51.550;7.980;2022-07-01T01:20:34;10.32;;;7.90;;
18822;SDS011;9540;51.550;7.980;2022-07-01T01:23:01;10.95;;;7.40;;
18822;SDS011;9540;51.550;7.980;2022-07-01T01:25:30;9.52;;;7.70;;
18822;SDS011;9540;51.550;7.980;2022-07-01T01:27:57;12.70;;;6.95;;
18822;SDS011;9540;51.550;7.980;2022-07-01T01:30:24;8.50;;;7.15;;
18822;SDS011;9540;51.550;7.980;2022-07-01T01:32:51;8.07;;;5.88;;
18822;SDS011;9540;51.550;7.980;2022-07-01T01:35:19;7.43;;;6.00;;
18822;SDS011;9540;51.550;7.980;2022-07-01T01:37:47;7.78;;;6.38;;
18822;SDS011;9540;51.550;7.980;2022-07-01T01:40:15;9.55;;;5.80;;
18822;SDS011;9540;51.550;7.980;2022-07-01T01:42:42;8.10;;;5.47;;
18822;SDS011;9540;51.550;7.980;2022-07-01T01:45:10;6.97;;;5.47;;
18822;SDS011;9540;51.550;7.980;2022-07-01T01:47:37;9.13;;;6.70;;
18822;SDS011;9540;51.550;7.980;2022-07-01T01:50:05;10.73;;;6.53;;
18822;SDS011;9540;51.550;7.980;2022-07-01T01:52:33;9.55;;;6.82;;
18822;SDS011;9540;51.550;7.980;2022-07-01T01:55:01;12.27;;;7.60;;
18822;SDS011;9540;51.550;7.980;2022-07-01T01:57:28;11.73;;;9.10;;
18822;SDS011;9540;51.550;7.980;2022-07-01T01:59:55;14.88;;;10.48;;
18822;SDS011;9540;51.550;7.980;2022-07-01T02:02:22;18.60;;;11.88;;
18822;SDS011;9540;51.550;7.980;2022-07-01T02:04:50;14.55;;;10.55;;
18822;SDS011;9540;51.550;7.980;2022-07-01T02:07:17;12.80;;;10.38;;
18822;SDS011;9540;51.550;7.980;2022-07-01T02:09:44;12.95;;;9.68;;
18822;SDS011;9540;51.550;7.980;2022-07-01T02:12:13;10.52;;;8.63;;
18822;SDS011;9540;51.550;7.980;2022-07-01T02:14:41;14.25;;;9.32;;
18822;SDS011;9540;51.550;7.980;2022-07-01T02:17:08;13.65;;;10.20;;
18822;SDS011;9540;51.550;7.980;2022-07-01T02:19:35;16.00;;;10.48;;
18822;SDS011;9540;51.550;7.980;2022-07-01T02:22:02;11.90;;;9.32;;
18822;SDS011;9540;51.550;7.980;2022-07-01T02:24:29;21.25;;;11.48;;
18822;SDS011;9540;51.550;7.980;2022-07-01T02:26:56;19.90;;;11.27;;
18822;SDS011;9540;51.550;7.980;2022-07-01T02:29:25;19.00;;;10.13;;
18822;SDS011;9540;51.550;7.980;2022-07-01T02:31:52;15.23;;;10.25;;
18822;SDS011;9540;51.550;7.980;2022-07-01T02:34:19;18.23;;;11.82;;
18822;SDS011;9540;51.550;7.980;2022-07-01T02:36:46;16.48;;;11.48;;
18822;SDS011;9540;51.550;7.980;2022-07-01T02:39:13;25.33;;;13.02;;
18822;SDS011;9540;51.550;7.980;2022-07-01T02:41:40;15.52;;;12.40;;
18822;SDS011;9540;51.550;7.980;2022-07-01T02:44:25;17.75;;;12.85;;
18822;SDS011;9540;51.550;7.980;2022-07-01T02:46:54;20.80;;;13.40;;
18822;SDS011;9540;51.550;7.980;2022-07-01T02:49:22;17.45;;;13.07;;
18822;SDS011;9540;51.550;7.980;2022-07-01T02:51:48;18.10;;;13.02;;
18822;SDS011;9540;51.550;7.980;2022-07-01T02:54:16;22.40;;;14.25;;
18822;SDS011;9540;51.550;7.980;2022-07-01T02:56:43;22.13;;;14.93;;
18822;SDS011;9540;51.550;7.980;2022-07-01T02:59:10;21.55;;;14.68;;
18822;SDS011;9540;51.550;7.980;2022-07-01T03:01:38;21.73;;;14.45;;
18822;SDS011;9540;51.550;7.980;2022-07-01T03:04:05;24.23;;;13.80;;
18822;SDS011;9540;51.550;7.980;2022-07-01T03:06:32;24.45;;;15.13;;
18822;SDS011;9540;51.550;7.980;2022-07-01T03:09:00;22.30;;;14.95;;
18822;SDS011;9540;51.550;7.980;2022-07-01T03:11:27;23.33;;;15.45;;
18822;SDS011;9540;51.550;7.980;2022-07-01T03:13:53;18.27;;;13.20;;
18822;SDS011;9540;51.550;7.980;2022-07-01T03:16:21;21.77;;;13.95;;
18822;SDS011;9540;51.550;7.980;2022-07-01T03:18:50;21.58;;;13.55;;
18822;SDS011;9540;51.550;7.980;2022-07-01T03:21:19;23.83;;;14.27;;
18822;SDS011;9540;51.550;7.980;2022-07-01T03:23:50;21.67;;;14.13;;
18822;SDS011;9540;51.550;7.980;2022-07-01T03:26:21;18.33;;;12.57;;
18822;SDS011;9540;51.550;7.980;2022-07-01T03:28:54;23.90;;;15.52;;
18822;SDS011;9540;51.550;7.980;2022-07-01T03:31:22;25.80;;;15.15;;
18822;SDS011;9540;51.550;7.980;2022-07-01T03:33:56;26.48;;;16.15;;
18822;SDS011;9540;51.550;7.980;2022-07-01T03:36:27;27.33;;;16.38;;
18822;SDS011;9540;51.550;7.980;2022-07-01T03:38:54;23.83;;;14.70;;
18822;SDS011;9540;51.550;7.980;2022-07-01T03:41:28;24.10;;;14.65;;
18822;SDS011;9540;51.550;7.980;2022-07-01T03:44:04;24.30;;;14.73;;
18822;SDS011;9540;51.550;7.980;2022-07-01T03:46:34;27.50;;;15.02;;
18822;SDS011;9540;51.550;7.980;2022-07-01T03:49:04;20.60;;;12.43;;
18822;SDS011;9540;51.550;7.980;2022-07-01T03:51:33;18.77;;;11.55;;
18822;SDS011;9540;51.550;7.980;2022-07-01T03:54:02;16.85;;;10.27;;
18822;SDS011;9540;51.550;7.980;2022-07-01T03:56:47;16.02;;;10.25;;
18822;SDS011;9540;51.550;7.980;2022-07-01T03:59:17;17.63;;;11.88;;
18822;SDS011;9540;51.550;7.980;2022-07-01T04:01:44;15.20;;;10.98;;
18822;SDS011;9540;51.550;7.980;2022-07-01T04:04:20;17.65;;;10.00;;
18822;SDS011;9540;51.550;7.980;2022-07-01T04:06:53;13.18;;;9.50;;
18822;SDS011;9540;51.550;7.980;2022-07-01T04:09:26;16.42;;;9.50;;
18822;SDS011;9540;51.550;7.980;2022-07-01T04:11:57;13.55;;;8.82;;
18822;SDS011;9540;51.550;7.980;2022-07-01T04:14:32;14.25;;;9.07;;
18822;SDS011;9540;51.550;7.980;2022-07-01T04:17:05;11.95;;;7.30;;
18822;SDS011;9540;51.550;7.980;2022-07-01T04:19:35;9.27;;;6.90;;
18822;SDS011;9540;51.550;7.980;2022-07-01T04:22:06;14.13;;;7.10;;
18822;SDS011;9540;51.550;7.980;2022-07-01T04:24:54;8.10;;;5.93;;
18822;SDS011;9540;51.550;7.980;2022-07-01T04:27:26;7.47;;;6.00;;
18822;SDS011;9540;51.550;7.980;2022-07-01T04:29:59;9.25;;;6.13;;
18822;SDS011;9540;51.550;7.980;2022-07-01T04:32:32;7.25;;;6.13;;
18822;SDS011;9540;51.550;7.980;2022-07-01T04:35:02;11.68;;;6.13;;
18822;SDS011;9540;51.550;7.980;2022-07-01T04:37:32;8.27;;;6.28;;
18822;SDS011;9540;51.550;7.980;2022-07-01T04:40:02;7.78;;;5.15;;
18822;SDS011;9540;51.550;7.980;2022-07-01T04:42:35;9.02;;;6.18;;
18822;SDS011;9540;51.550;7.980;2022-07-01T04:45:05;8.73;;;6.07;;
18822;SDS011;9540;51.550;7.980;2022-07-01T04:47:34;11.52;;;6.32;;
18822;SDS011;9540;51.550;7.980;2022-07-01T04:50:09;9.68;;;7.03;;
18822;SDS011;9540;51.550;7.980;2022-07-01T04:52:38;10.07;;;6.40;;
18822;SDS011;9540;51.550;7.980;2022-07-01T04:55:26;10.93;;;6.35;;
18822;SDS011;9540;51.550;7.980;2022-07-01T04:58:08;10.80;;;7.20;;
18822;SDS011;9540;51.550;7.980;2022-07-01T05:00:46;9.05;;;6.80;;
18822;SDS011;9540;51.550;7.980;2022-07-01T05:03:25;7.22;;;6.05;;
18822;SDS011;9540;51.550;7.980;2022-07-01T05:06:06;9.32;;;6.68;;
18822;SDS011;9540;51.550;7.980;2022-07-01T05:08:33;13.10;;;7.35;;
18822;SDS011;9540;51.550;7.980;2022-07-01T05:11:06;9.55;;;6.43;;
18822;SDS011;9540;51.550;7.980;2022-07-01T05:13:36;8.27;;;6.28;;
18822;SDS011;9540;51.550;7.980;2022-07-01T05:16:05;11.45;;;6.45;;
18822;SDS011;9540;51.550;7.980;2022-07-01T05:18:36;10.40;;;7.10;;
18822;SDS011;9540;51.550;7.980;2022-07-01T05:21:24;12.07;;;7.30;;
18822;SDS011;9540;51.550;7.980;2022-07-01T05:24:17;9.05;;;7.30;;
18822;SDS011;9540;51.550;7.980;2022-07-01T05:26:47;8.65;;;6.43;;
18822;SDS011;9540;51.550;7.980;2022-07-01T05:29:17;9.57;;;6.18;;
18822;SDS011;9540;51.550;7.980;2022-07-01T05:31:49;11.40;;;7.47;;
18822;SDS011;9540;51.550;7.980;2022-07-01T05:34:21;11.52;;;7.43;;
18822;SDS011;9540;51.550;7.980;2022-07-01T05:36:56;14.23;;;8.23;;
18822;SDS011;9540;51.550;7.980;2022-07-01T05:39:33;12.18;;;6.82;;
18822;SDS011;9540;51.550;7.980;2022-07-01T05:42:09;9.93;;;6.55;;
18822;SDS011;9540;51.550;7.980;2022-07-01T05:44:39;9.60;;;6.90;;
18822;SDS011;9540;51.550;7.980;2022-07-01T05:47:06;13.68;;;7.30;;
18822;SDS011;9540;51.550;7.980;2022-07-01T05:49:37;8.55;;;6.03;;
18822;SDS011;9540;51.550;7.980;2022-07-01T05:52:16;7.53;;;5.70;;
18822;SDS011;9540;51.550;7.980;2022-07-01T05:54:44;8.60;;;5.97;;
18822;SDS011;9540;51.550;7.980;2022-07-01T05:57:11;11.75;;;6.40;;
18822;SDS011;9540;51.550;7.980;2022-07-01T05:59:41;9.40;;;6.05;;
18822;SDS011;9540;51.550;7.980;2022-07-01T06:02:10;8.70;;;6.55;;
18822;SDS011;9540;51.550;7.980;2022-07-01T06:04:41;9.10;;;5.82;;
18822;SDS011;9540;51.550;7.980;2022-07-01T06:07:19;8.82;;;5.63;;
18822;SDS011;9540;51.550;7.980;2022-07-01T06:09:49;8.57;;;5.57;;
18822;SDS011;9540;51.550;7.980;2022-07-01T06:12:22;10.32;;;5.45;;
18822;SDS011;9540;51.550;7.980;2022-07-01T06:14:50;10.73;;;5.57;;
18822;SDS011;9540;51.550;7.980;2022-07-01T06:17:18;12.35;;;5.57;;
18822;SDS011;9540;51.550;7.980;2022-07-01T06:19:46;10.07;;;6.03;;
18822;SDS011;9540;51.550;7.980;2022-07-01T06:22:30;9.95;;;5.28;;
18822;SDS011;9540;51.550;7.980;2022-07-01T06:25:01;9.68;;;5.53;;
18822;SDS011;9540;51.550;7.980;2022-07-01T06:27:38;8.50;;;5.13;;
18822;SDS011;9540;51.550;7.980;2022-07-01T06:30:13;16.58;;;5.63;;
18822;SDS011;9540;51.550;7.980;2022-07-01T06:32:55;9.93;;;4.72;;
18822;SDS011;9540;51.550;7.980;2022-07-01T06:35:27;5.97;;;4.90;;
18822;SDS011;9540;51.550;7.980;2022-07-01T06:38:05;9.30;;;5.13;;
18822;SDS011;9540;51.550;7.980;2022-07-01T06:40:47;7.50;;;4.97;;
18822;SDS011;9540;51.550;7.980;2022-07-01T06:43:40;6.57;;;4.93;;
18822;SDS011;9540;51.550;7.980;2022-07-01T06:46:11;10.85;;;5.50;;
18822;SDS011;9540;51.550;7.980;2022-07-01T06:48:38;8.45;;;5.80;;
18822;SDS011;9540;51.550;7.980;2022-07-01T06:51:05;7.55;;;4.85;;
18822;SDS011;9540;51.550;7.980;2022-07-01T06:53:47;8.25;;;5.68;;
18822;SDS011;9540;51.550;7.980;2022-07-01T06:56:15;8.95;;;5.22;;
18822;SDS011;9540;51.550;7.980;2022-07-01T06:58:45;7.32;;;4.85;;
18822;SDS011;9540;51.550;7.980;2022-07-01T07:01:12;11.13;;;5.80;;
18822;SDS011;9540;51.550;7.980;2022-07-01T07:03:40;8.75;;;5.30;;
18822;SDS011;9540;51.550;7.980;2022-07-01T07:06:10;10.10;;;6.68;;
18822;SDS011;9540;51.550;7.980;2022-07-01T07:08:46;9.27;;;5.47;;
18822;SDS011;9540;51.550;7.980;2022-07-01T07:11:20;7.00;;;6.20;;
18822;SDS011;9540;51.550;7.980;2022-07-01T07:13:53;10.18;;;6.32;;
18822;SDS011;9540;51.550;7.980;2022-07-01T07:16:24;9.73;;;6.45;;
18822;SDS011;9540;51.550;7.980;2022-07-01T07:18:58;11.23;;;5.97;;
18822;SDS011;9540;51.550;7.980;2022-07-01T07:21:41;7.07;;;5.75;;
18822;SDS011;9540;51.550;7.980;2022-07-01T07:24:12;7.13;;;5.55;;
18822;SDS011;9540;51.550;7.980;2022-07-01T07:26:54;10.63;;;5.75;;
18822;SDS011;9540;51.550;7.980;2022-07-01T07:29:28;8.50;;;6.88;;
18822;SDS011;9540;51.550;7.980;2022-07-01T07:32:05;7.80;;;6.30;;
18822;SDS011;9540;51.550;7.980;2022-07-01T07:34:33;7.20;;;5.65;;
18822;SDS011;9540;51.550;7.980;2022-07-01T07:37:08;7.00;;;5.22;;
18822;SDS011;9540;51.550;7.980;2022-07-01T07:39:40;8.93;;;4.75;;
18822;SDS011;9540;51.550;7.980;2022-07-01T07:42:17;7.05;;;5.40;;
18822;SDS011;9540;51.550;7.980;2022-07-01T07:44:52;10.30;;;6.50;;
18822;SDS011;9540;51.550;7.980;2022-07-01T07:47:31;7.00;;;4.85;;
18822;SDS011;9540;51.550;7.980;2022-07-01T07:50:01;6.68;;;5.05;;
18822;SDS011;9540;51.550;7.980;2022-07-01T07:52:31;8.85;;;4.93;;
18822;SDS011;9540;51.550;7.980;2022-07-01T07:55:01;7.47;;;5.20;;
18822;SDS011;9540;51.550;7.980;2022-07-01T07:57:31;5.82;;;4.85;;
18822;SDS011;9540;51.550;7.980;2022-07-01T08:00:02;7.63;;;4.80;;
18822;SDS011;9540;51.550;7.980;2022-07-01T08:02:38;10.93;;;4.70;;
18822;SDS011;9540;51.550;7.980;2022-07-01T08:05:09;12.35;;;3.88;;
18822;SDS011;9540;51.550;7.980;2022-07-01T08:07:47;6.93;;;3.92;;
18822;SDS011;9540;51.550;7.980;2022-07-01T08:10:22;7.65;;;3.70;;
18822;SDS011;9540;51.550;7.980;2022-07-01T08:12:49;5.90;;;3.55;;
18822;SDS011;9540;51.550;7.980;2022-07-01T08:15:18;9.30;;;3.70;;
18822;SDS011;9540;51.550;7.980;2022-07-01T08:17:47;8.27;;;3.72;;
18822;SDS011;9540;51.550;7.980;2022-07-01T08:20:22;4.60;;;2.88;;
18822;SDS011;9540;51.550;7.980;2022-07-01T08:22:52;6.47;;;3.63;;
18822;SDS011;9540;51.550;7.980;2022-07-01T08:25:20;6.32;;;3.15;;
18822;SDS011;9540;51.550;7.980;2022-07-01T08:27:53;8.35;;;2.53;;
18822;SDS011;9540;51.550;7.980;2022-07-01T08:30:22;5.15;;;3.00;;
18822;SDS011;9540;51.550;7.980;2022-07-01T08:32:50;4.95;;;2.92;;
18822;SDS011;9540;51.550;7.980;2022-07-01T08:35:28;7.47;;;3.60;;
18822;SDS011;9540;51.550;7.980;2022-07-01T08:38:07;7.78;;;2.97;;
18822;SDS011;9540;51.550;7.980;2022-07-01T08:40:37;6.88;;;2.95;;
18822;SDS011;9540;51.550;7.980;2022-07-01T08:43:12;3.17;;;2.80;;
18822;SDS011;9540;51.550;7.980;2022-07-01T08:45:42;5.18;;;2.78;;
18822;SDS011;9540;51.550;7.980;2022-07-01T08:48:15;5.53;;;3.20;;
18822;SDS011;9540;51.550;7.980;2022-07-01T08:50:53;4.82;;;3.00;;
18822;SDS011;9540;51.550;7.980;2022-07-01T08:53:21;8.18;;;2.85;;
18822;SDS011;9540;51.550;7.980;2022-07-01T08:55:55;5.40;;;2.78;;
18822;SDS011;9540;51.550;7.980;2022-07-01T08:58:44;5.78;;;2.60;;
18822;SDS011;9540;51.550;7.980;2022-07-01T09:01:27;4.32;;;2.95;;
18822;SDS011;9540;51.550;7.980;2022-07-01T09:04:12;5.13;;;2.83;;
18822;SDS011;9540;51.550;7.980;2022-07-01T09:06:43;8.10;;;3.00;;
18822;SDS011;9540;51.550;7.980;2022-07-01T09:09:15;5.20;;;2.85;;
18822;SDS011;9540;51.550;7.980;2022-07-01T09:12:00;5.85;;;2.53;;
18822;SDS011;9540;51.550;7.980;2022-07-01T09:14:34;5.13;;;2.60;;
18822;SDS011;9540;51.550;7.980;2022-07-01T09:17:06;5.70;;;2.30;;
18822;SDS011;9540;51.550;7.980;2022-07-01T09:19:39;2.78;;;2.53;;
18822;SDS011;9540;51.550;7.980;2022-07-01T09:22:15;6.20;;;2.85;;
18822;SDS011;9540;51.550;7.980;2022-07-01T09:24:50;5.43;;;2.28;;
18822;SDS011;9540;51.550;7.980;2022-07-01T09:27:26;6.55;;;2.95;;
18822;SDS011;9540;51.550;7.980;2022-07-01T09:30:00;6.80;;;3.00;;
18822;SDS011;9540;51.550;7.980;2022-07-01T09:32:28;4.75;;;2.47;;
18822;SDS011;9540;51.550;7.980;2022-07-01T09:34:55;5.95;;;2.90;;
18822;SDS011;9540;51.550;7.980;2022-07-01T09:37:39;4.38;;;2.30;;
18822;SDS011;9540;51.550;7.980;2022-07-01T09:40:17;6.38;;;2.70;;
18822;SDS011;9540;51.550;7.980;2022-07-01T09:42:47;10.27;;;2.70;;
18822;SDS011;9540;51.550;7.980;2022-07-01T09:45:24;4.63;;;3.08;;
18822;SDS011;9540;51.550;7.980;2022-07-01T09:48:00;3.42;;;2.00;;
18822;SDS011;9540;51.550;7.980;2022-07-01T09:50:31;4.55;;;2.35;;
18822;SDS011;9540;51.550;7.980;2022-07-01T09:53:01;4.50;;;2.00;;
18822;SDS011;9540;51.550;7.980;2022-07-01T09:55:35;5.47;;;2.55;;
18822;SDS011;9540;51.550;7.980;2022-07-01T09:58:06;6.35;;;2.13;;
18822;SDS011;9540;51.550;7.980;2022-07-01T10:00:36;4.95;;;2.15;;
18822;SDS011;9540;51.550;7.980;2022-07-01T10:03:13;4.72;;;2.63;;
18822;SDS011;9540;51.550;7.980;2022-07-01T10:06:08;3.03;;;2.40;;
18822;SDS011;9540;51.550;7.980;2022-07-01T10:09:02;6.68;;;2.47;;
18822;SDS011;9540;51.550;7.980;2022-07-01T10:11:50;3.80;;;2.60;;
18822;SDS011;9540;51.550;7.980;2022-07-01T10:14:37;5.95;;;2.38;;
18822;SDS011;9540;51.550;7.980;2022-07-01T10:17:06;3.88;;;2.33;;
18822;SDS011;9540;51.550;7.980;2022-07-01T10:19:53;4.10;;;2.10;;
18822;SDS011;9540;51.550;7.980;2022-07-01T10:22:25;4.68;;;2.10;;
18822;SDS011;9540;51.550;7.980;2022-07-01T10:25:06;5.05;;;2.50;;
18822;SDS011;9540;51.550;7.980;2022-07-01T10:31:00;2.50;;;2.30;;
18822;SDS011;9540;51.550;7.980;2022-07-01T10:33:43;3.58;;;2.03;;
18822;SDS011;9540;51.550;7.980;2022-07-01T10:36:17;4.47;;;2.20;;
18822;SDS011;9540;51.550;7.980;2022-07-01T10:39:13;4.35;;;2.10;;
18822;SDS011;9540;51.550;7.980;2022-07-01T10:41:57;4.15;;;1.92;;
18822;SDS011;9540;51.550;7.980;2022-07-01T10:44:28;3.53;;;2.15;;
18822;SDS011;9540;51.550;7.980;2022-07-01T10:47:04;5.45;;;2.80;;
18822;SDS011;9540;51.550;7.980;2022-07-01T10:52:34;4.25;;;2.03;;
18822;SDS011;9540;51.550;7.980;2022-07-01T10:55:11;4.28;;;1.75;;
18822;SDS011;9540;51.550;7.980;2022-07-01T10:57:41;5.50;;;1.52;;
18822;SDS011;9540;51.550;7.980;2022-07-01T11:00:30;2.80;;;1.45;;
18822;SDS011;9540;51.550;7.980;2022-07-01T11:03:11;12.50;;;1.33;;
18822;SDS011;9540;51.550;7.980;2022-07-01T11:05:53;3.35;;;1.52;;
18822;SDS011;9540;51.550;7.980;2022-07-01T11:08:22;5.43;;;1.70;;
18822;SDS011;9540;51.550;7.980;2022-07-01T11:10:54;6.63;;;1.70;;
18822;SDS011;9540;51.550;7.980;2022-07-01T11:13:24;3.40;;;1.67;;
18822;SDS011;9540;51.550;7.980;2022-07-01T11:15:52;5.45;;;1.65;;
18822;SDS011;9540;51.550;7.980;2022-07-01T11:18:20;2.97;;;1.70;;
18822;SDS011;9540;51.550;7.980;2022-07-01T11:20:49;2.92;;;1.60;;
18822;SDS011;9540;51.550;7.980;2022-07-01T11:23:17;3.65;;;1.95;;
18822;SDS011;9540;51.550;7.980;2022-07-01T11:25:45;4.18;;;1.60;;
18822;SDS011;9540;51.550;7.980;2022-07-01T11:28:12;2.80;;;1.58;;
18822;SDS011;9540;51.550;7.980;2022-07-01T11:30:39;6.60;;;1.90;;
18822;SDS011;9540;51.550;7.980;2022-07-01T11:33:07;2.97;;;1.95;;
18822;SDS011;9540;51.550;7.980;2022-07-01T11:35:37;1.70;;;1.60;;
18822;SDS011;9540;51.550;7.980;2022-07-01T11:38:22;4.93;;;1.77;;
18822;SDS011;9540;51.550;7.980;2022-07-01T11:41:09;3.28;;;1.85;;
18822;SDS011;9540;51.550;7.980;2022-07-01T11:43:44;1.83;;;1.35;;
18822;SDS011;9540;51.550;7.980;2022-07-01T11:46:11;3.63;;;1.70;;
18822;SDS011;9540;51.550;7.980;2022-07-01T11:48:39;3.85;;;1.70;;
18822;SDS011;9540;51.550;7.980;2022-07-01T11:51:10;4.68;;;1.73;;
18822;SDS011;9540;51.550;7.980;2022-07-01T11:53:39;1.85;;;1.20;;
18822;SDS011;9540;51.550;7.980;2022-07-01T11:56:07;4.13;;;1.20;;
18822;SDS011;9540;51.550;7.980;2022-07-01T11:58:41;2.28;;;1.35;;
18822;SDS011;9540;51.550;7.980;2022-07-01T12:01:22;3.72;;;1.50;;
18822;SDS011;9540;51.550;7.980;2022-07-01T12:03:55;3.03;;;1.42;;
18822;SDS011;9540;51.550;7.980;2022-07-01T12:06:26;1.38;;;1.20;;
18822;SDS011;9540;51.550;7.980;2022-07-01T12:08:53;4.60;;;1.63;;
18822;SDS011;9540;51.550;7.980;2022-07-01T12:11:21;5.95;;;1.58;;
18822;SDS011;9540;51.550;7.980;2022-07-01T12:13:50;3.38;;;1.48;;
18822;SDS011;9540;51.550;7.980;2022-07-01T12:16:19;3.80;;;1.73;;
18822;SDS011;9540;51.550;7.980;2022-07-01T12:18:52;4.43;;;1.73;;
18822;SDS011;9540;51.550;7.980;2022-07-01T12:21:21;2.70;;;1.70;;
18822;SDS011;9540;51.550;7.980;2022-07-01T12:24:03;2.88;;;1.50;;
18822;SDS011;9540;51.550;7.980;2022-07-01T12:26:31;2.53;;;1.55;;
18822;SDS011;9540;51.550;7.980;2022-07-01T12:29:00;2.15;;;1.67;;
18822;SDS011;9540;51.550;7.980;2022-07-01T12:31:27;4.18;;;2.03;;
18822;SDS011;9540;51.550;7.980;2022-07-01T12:33:54;3.22;;;1.90;;
18822;SDS011;9540;51.550;7.980;2022-07-01T12:36:21;1.80;;;1.63;;
18822;SDS011;9540;51.550;7.980;2022-07-01T12:38:59;3.70;;;1.98;;
18822;SDS011;9540;51.550;7.980;2022-07-01T12:41:30;4.32;;;2.28;;
18822;SDS011;9540;51.550;7.980;2022-07-01T12:43:59;4.05;;;1.98;;
18822;SDS011;9540;51.550;7.980;2022-07-01T12:46:27;4.45;;;1.80;;
18822;SDS011;9540;51.550;7.980;2022-07-01T12:48:55;3.33;;;2.25;;
18822;SDS011;9540;51.550;7.980;2022-07-01T12:51:28;5.93;;;2.17;;
18822;SDS011;9540;51.550;7.980;2022-07-01T12:53:56;3.65;;;1.90;;
18822;SDS011;9540;51.550;7.980;2022-07-01T12:56:24;2.78;;;1.95;;
18822;SDS011;9540;51.550;7.980;2022-07-01T12:58:54;3.45;;;1.80;;
18822;SDS011;9540;51.550;7.980;2022-07-01T13:01:22;3.50;;;1.67;;
18822;SDS011;9540;51.550;7.980;2022-07-01T13:03:49;2.08;;;1.40;;
18822;SDS011;9540;51.550;7.980;2022-07-01T13:06:16;5.18;;;1.42;;
18822;SDS011;9540;51.550;7.980;2022-07-01T13:08:43;2.75;;;1.10;;
18822;SDS011;9540;51.550;7.980;2022-07-01T13:11:10;1.10;;;1.05;;
18822;SDS011;9540;51.550;7.980;2022-07-01T13:13:37;1.90;;;1.02;;
18822;SDS011;9540;51.550;7.980;2022-07-01T13:16:08;2.50;;;1.05;;
18822;SDS011;9540;51.550;7.980;2022-07-01T13:18:35;1.45;;;1.02;;
18822;SDS011;9540;51.550;7.980;2022-07-01T13:21:02;4.68;;;1.38;;
18822;SDS011;9540;51.550;7.980;2022-07-01T13:23:29;8.93;;;1.40;;
18822;SDS011;9540;51.550;7.980;2022-07-01T13:25:56;3.70;;;1.15;;
18822;SDS011;9540;51.550;7.980;2022-07-01T13:28:24;3.72;;;1.40;;
18822;SDS011;9540;51.550;7.980;2022-07-01T13:30:51;2.05;;;1.08;;
18822;SDS011;9540;51.550;7.980;2022-07-01T13:33:20;3.00;;;1.17;;
18822;SDS011;9540;51.550;7.980;2022-07-01T13:35:47;1.75;;;1.00;;
18822;SDS011;9540;51.550;7.980;2022-07-01T13:38:14;2.15;;;0.90;;
18822;SDS011;9540;51.550;7.980;2022-07-01T13:40:41;3.78;;;1.30;;
18822;SDS011;9540;51.550;7.980;2022-07-01T13:43:08;1.25;;;0.98;;
18822;SDS011;9540;51.550;7.980;2022-07-01T13:45:35;2.67;;;1.40;;
18822;SDS011;9540;51.550;7.980;2022-07-01T13:48:02;3.80;;;1.35;;
18822;SDS011;9540;51.550;7.980;2022-07-01T13:50:31;0.93;;;0.75;;
18822;SDS011;9540;51.550;7.980;2022-07-01T13:52:58;6.22;;;1.02;;
18822;SDS011;9540;51.550;7.980;2022-07-01T13:55:25;2.20;;;1.05;;
18822;SDS011;9540;51.550;7.980;2022-07-01T13:57:52;1.88;;;0.93;;
18822;SDS011;9540;51.550;7.980;2022-07-01T14:00:19;1.40;;;1.00;;
18822;SDS011;9540;51.550;7.980;2022-07-01T14:02:46;2.03;;;0.80;;
18822;SDS011;9540;51.550;7.980;2022-07-01T14:05:13;1.95;;;0.90;;
18822;SDS011;9540;51.550;7.980;2022-07-01T14:07:42;3.53;;;0.80;;
18822;SDS011;9540;51.550;7.980;2022-07-01T14:10:10;1.20;;;0.93;;
18822;SDS011;9540;51.550;7.980;2022-07-01T14:12:37;4.43;;;0.88;;
18822;SDS011;9540;51.550;7.980;2022-07-01T14:15:05;1.23;;;1.10;;
18822;SDS011;9540;51.550;7.980;2022-07-01T14:17:33;4.10;;;0.80;;
18822;SDS011;9540;51.550;7.980;2022-07-01T14:20:00;1.15;;;0.80;;
18822;SDS011;9540;51.550;7.980;2022-07-01T14:22:27;7.35;;;1.08;;
18822;SDS011;9540;51.550;7.980;2022-07-01T14:24:55;3.08;;;0.85;;
18822;SDS011;9540;51.550;7.980;2022-07-01T14:27:22;3.25;;;1.02;;
18822;SDS011;9540;51.550;7.980;2022-07-01T14:29:49;1.58;;;0.82;;
18822;SDS011;9540;51.550;7.980;2022-07-01T14:32:16;2.10;;;0.80;;
18822;SDS011;9540;51.550;7.980;2022-07-01T14:34:46;1.45;;;1.05;;
18822;SDS011;9540;51.550;7.980;2022-07-01T14:37:13;4.75;;;1.00;;
18822;SDS011;9540;51.550;7.980;2022-07-01T14:39:40;1.58;;;0.77;;
18822;SDS011;9540;51.550;7.980;2022-07-01T14:42:08;2.05;;;0.70;;
18822;SDS011;9540;51.550;7.980;2022-07-01T14:44:36;1.27;;;1.02;;
18822;SDS011;9540;51.550;7.980;2022-07-01T14:47:03;1.50;;;0.60;;
18822;SDS011;9540;51.550;7.980;2022-07-01T14:49:31;0.93;;;0.70;;
18822;SDS011;9540;51.550;7.980;2022-07-01T14:52:01;2.10;;;0.80;;
18822;SDS011;9540;51.550;7.980;2022-07-01T14:54:28;2.58;;;0.70;;
18822;SDS011;9540;51.550;7.980;2022-07-01T14:56:55;2.60;;;1.25;;
18822;SDS011;9540;51.550;7.980;2022-07-01T14:59:23;2.22;;;0.85;;
18822;SDS011;9540;51.550;7.980;2022-07-01T15:01:51;1.48;;;0.90;;
18822;SDS011;9540;51.550;7.980;2022-07-01T15:04:20;3.15;;;1.00;;
18822;SDS011;9540;51.550;7.980;2022-07-01T15:06:47;1.35;;;1.08;;
18822;SDS011;9540;51.550;7.980;2022-07-01T15:09:14;4.72;;;1.00;;
18822;SDS011;9540;51.550;7.980;2022-07-01T15:11:41;4.57;;;0.90;;
18822;SDS011;9540;51.550;7.980;2022-07-01T15:14:08;6.97;;;1.58;;
18822;SDS011;9540;51.550;7.980;2022-07-01T15:16:36;6.43;;;1.05;;
18822;SDS011;9540;51.550;7.980;2022-07-01T15:19:03;5.90;;;1.20;;
18822;SDS011;9540;51.550;7.980;2022-07-01T15:21:31;2.50;;;1.30;;
18822;SDS011;9540;51.550;7.980;2022-07-01T15:23:58;1.92;;;0.93;;
18822;SDS011;9540;51.550;7.980;2022-07-01T15:26:25;2.50;;;0.88;;